sensor_id;sensor_type;location;lat;lon;timestamp;temperature;humidity
2010;DHT22;1008;47.404;8.502;2023-08-24T00:00:50;26.00;99.90
2010;DHT22;1008;47.404;8.502;2023-08-24T00:03:16;26.20;99.90
2010;DHT22;1008;47.404;8.502;2023-08-24T00:05:43;26.10;99.90
2010;DHT22;1008;47.404;8.502;2023-08-24T00:08:10;26.10;99.90
2010;DHT22;1008;47.404;8.502;2023-08-24T00:10:37;26.20;99.90
2010;DHT22;1008;47.404;8.502;2023-08-24T00:13:04;26.20;99.90
2010;DHT22;1008;47.404;8.502;2023-08-24T00:15:32;26.00;99.90
2010;DHT22;1008;47.404;8.502;2023-08-24T00:17:59;26.10;99.90
2010;DHT22;1008;47.404;8.502;2023-08-24T00:20:26;26.20;99.90
2010;DHT22;1008;47.404;8.502;2023-08-24T00:22:52;26.10;99.90
2010;DHT22;1008;47.404;8.502;2023-08-24T00:25:19;25.70;99.90
2010;DHT22;1008;47.404;8.502;2023-08-24T00:27:46;25.60;99.90
2010;DHT22;1008;47.404;8.502;2023-08-24T00:30:13;25.70;99.90
2010;DHT22;1008;47.404;8.502;2023-08-24T00:32:41;25.80;99.90
2010;DHT22;1008;47.404;8.502;2023-08-24T00:35:08;25.80;99.90
2010;DHT22;1008;47.404;8.502;2023-08-24T00:37:36;25.90;99.90
2010;DHT22;1008;47.404;8.502;2023-08-24T00:40:04;25.80;99.90
2010;DHT22;1008;47.404;8.502;2023-08-24T00:42:37;25.70;99.90
2010;DHT22;1008;47.404;8.502;2023-08-24T00:45:04;25.50;99.90
2010;DHT22;1008;47.404;8.502;2023-08-24T00:47:31;25.40;99.90
2010;DHT22;1008;47.404;8.502;2023-08-24T00:50:00;25.40;99.90
2010;DHT22;1008;47.404;8.502;2023-08-24T00:52:29;25.50;99.90
2010;DHT22;1008;47.404;8.502;2023-08-24T00:54:57;25.60;99.90
2010;DHT22;1008;47.404;8.502;2023-08-24T00:57:24;25.60;99.90
2010;DHT22;1008;47.404;8.502;2023-08-24T00:59:51;25.60;99.90
2010;DHT22;1008;47.404;8.502;2023-08-24T01:02:18;25.60;99.90
2010;DHT22;1008;47.404;8.502;2023-08-24T01:04:46;25.60;99.90
2010;DHT22;1008;47.404;8.502;2023-08-24T01:07:15;25.60;99.90
2010;DHT22;1008;47.404;8.502;2023-08-24T01:09:42;25.60;99.90
2010;DHT22;1008;47.404;8.502;2023-08-24T01:12:15;25.40;99.90
2010;DHT22;1008;47.404;8.502;2023-08-24T01:14:50;25.30;99.90
2010;DHT22;1008;47.404;8.502;2023-08-24T01:17:24;25.40;99.90
2010;DHT22;1008;47.404;8.502;2023-08-24T01:19:53;25.50;99.90
2010;DHT22;1008;47.404;8.502;2023-08-24T01:22:34;25.30;99.90
2010;DHT22;1008;47.404;8.502;2023-08-24T01:25:06;25.30;99.90
2010;DHT22;1008;47.404;8.502;2023-08-24T01:27:37;25.20;99.90
2010;DHT22;1008;47.404;8.502;2023-08-24T01:30:05;25.30;99.90
2010;DHT22;1008;47.404;8.502;2023-08-24T01:32:33;25.30;99.90
2010;DHT22;1008;47.404;8.502;2023-08-24T01:35:03;25.20;99.90
2010;DHT22;1008;47.404;8.502;2023-08-24T01:37:30;25.20;99.90
2010;DHT22;1008;47.404;8.502;2023-08-24T01:40:02;25.10;99.90
2010;DHT22;1008;47.404;8.502;2023-08-24T01:42:35;25.20;99.90
2010;DHT22;1008;47.404;8.502;2023-08-24T01:45:05;25.00;99.90
2010;DHT22;1008;47.404;8.502;2023-08-24T01:47:33;25.10;99.90
2010;DHT22;1008;47.404;8.502;2023-08-24T01:50:02;25.10;99.90
2010;DHT22;1008;47.404;8.502;2023-08-24T01:52:29;24.90;99.90
2010;DHT22;1008;47.404;8.502;2023-08-24T01:54:56;25.00;99.90
2010;DHT22;1008;47.404;8.502;2023-08-24T01:57:23;25.10;99.90
2010;DHT22;1008;47.404;8.502;2023-08-24T01:59:51;25.00;99.90
2010;DHT22;1008;47.404;8.502;2023-08-24T02:02:18;25.00;99.90
2010;DHT22;1008;47.404;8.502;2023-08-24T02:04:44;24.50;99.90
2010;DHT22;1008;47.404;8.502;2023-08-24T02:07:11;24.20;99.90
2010;DHT22;1008;47.404;8.502;2023-08-24T02:09:38;24.30;1.00
2010;DHT22;1008;47.404;8.502;2023-08-24T02:12:05;24.50;99.90
2010;DHT22;1008;47.404;8.502;2023-08-24T02:14:31;24.60;99.90
2010;DHT22;1008;47.404;8.502;2023-08-24T02:16:59;24.80;99.90
2010;DHT22;1008;47.404;8.502;2023-08-24T02:19:26;24.70;99.90
2010;DHT22;1008;47.404;8.502;2023-08-24T02:21:53;24.90;99.90
2010;DHT22;1008;47.404;8.502;2023-08-24T02:24:19;24.90;99.90
2010;DHT22;1008;47.404;8.502;2023-08-24T02:26:46;24.70;99.90
2010;DHT22;1008;47.404;8.502;2023-08-24T02:29:13;24.60;99.90
2010;DHT22;1008;47.404;8.502;2023-08-24T02:31:39;24.70;99.90
2010;DHT22;1008;47.404;8.502;2023-08-24T02:34:08;24.60;99.90
2010;DHT22;1008;47.404;8.502;2023-08-24T02:36:35;24.50;99.90
2010;DHT22;1008;47.404;8.502;2023-08-24T02:39:02;24.70;99.90
2010;DHT22;1008;47.404;8.502;2023-08-24T02:41:29;24.70;99.90
2010;DHT22;1008;47.404;8.502;2023-08-24T02:43:56;24.50;99.90
2010;DHT22;1008;47.404;8.502;2023-08-24T02:46:22;24.50;99.90
2010;DHT22;1008;47.404;8.502;2023-08-24T02:48:49;24.40;99.90
2010;DHT22;1008;47.404;8.502;2023-08-24T02:51:17;24.30;99.90
2010;DHT22;1008;47.404;8.502;2023-08-24T02:53:44;24.40;1.00
2010;DHT22;1008;47.404;8.502;2023-08-24T02:56:10;24.50;99.90
2010;DHT22;1008;47.404;8.502;2023-08-24T02:58:38;24.60;99.90
2010;DHT22;1008;47.404;8.502;2023-08-24T03:01:05;24.60;99.90
2010;DHT22;1008;47.404;8.502;2023-08-24T03:03:32;24.50;99.90
2010;DHT22;1008;47.404;8.502;2023-08-24T03:06:01;24.40;1.00
2010;DHT22;1008;47.404;8.502;2023-08-24T03:08:29;24.40;1.00
2010;DHT22;1008;47.404;8.502;2023-08-24T03:10:56;24.40;1.00
2010;DHT22;1008;47.404;8.502;2023-08-24T03:13:23;24.40;1.00
2010;DHT22;1008;47.404;8.502;2023-08-24T03:15:50;24.60;1.00
2010;DHT22;1008;47.404;8.502;2023-08-24T03:18:17;24.50;1.00
2010;DHT22;1008;47.404;8.502;2023-08-24T03:20:45;24.60;1.00
2010;DHT22;1008;47.404;8.502;2023-08-24T03:23:12;24.60;1.00
2010;DHT22;1008;47.404;8.502;2023-08-24T03:25:41;24.70;99.90
2010;DHT22;1008;47.404;8.502;2023-08-24T03:28:09;24.50;99.90
2010;DHT22;1008;47.404;8.502;2023-08-24T03:30:37;24.30;1.00
2010;DHT22;1008;47.404;8.502;2023-08-24T03:33:04;24.40;1.00
2010;DHT22;1008;47.404;8.502;2023-08-24T03:35:32;24.40;1.00
2010;DHT22;1008;47.404;8.502;2023-08-24T03:37:59;24.40;1.00
2010;DHT22;1008;47.404;8.502;2023-08-24T03:40:26;24.60;1.00
2010;DHT22;1008;47.404;8.502;2023-08-24T03:42:54;24.50;1.00
2010;DHT22;1008;47.404;8.502;2023-08-24T03:45:21;24.40;1.00
2010;DHT22;1008;47.404;8.502;2023-08-24T03:47:47;24.30;1.00
2010;DHT22;1008;47.404;8.502;2023-08-24T03:50:14;24.40;1.00
2010;DHT22;1008;47.404;8.502;2023-08-24T03:52:41;24.30;1.00
2010;DHT22;1008;47.404;8.502;2023-08-24T03:55:08;24.20;1.00
2010;DHT22;1008;47.404;8.502;2023-08-24T03:57:35;24.20;1.00
2010;DHT22;1008;47.404;8.502;2023-08-24T04:00:05;24.20;1.00
2010;DHT22;1008;47.404;8.502;2023-08-24T04:02:36;24.00;1.00
2010;DHT22;1008;47.404;8.502;2023-08-24T04:05:03;23.90;1.00
2010;DHT22;1008;47.404;8.502;2023-08-24T04:07:30;23.60;1.00
2010;DHT22;1008;47.404;8.502;2023-08-24T04:09:57;24.00;1.00
2010;DHT22;1008;47.404;8.502;2023-08-24T04:12:24;24.20;1.00
2010;DHT22;1008;47.404;8.502;2023-08-24T04:14:50;24.30;1.00
2010;DHT22;1008;47.404;8.502;2023-08-24T04:17:19;24.20;1.00
2010;DHT22;1008;47.404;8.502;2023-08-24T04:19:46;24.10;1.00
2010;DHT22;1008;47.404;8.502;2023-08-24T04:22:12;24.00;1.00
2010;DHT22;1008;47.404;8.502;2023-08-24T04:24:39;23.90;1.00
2010;DHT22;1008;47.404;8.502;2023-08-24T04:27:06;24.00;1.00
2010;DHT22;1008;47.404;8.502;2023-08-24T04:29:32;23.70;1.00
2010;DHT22;1008;47.404;8.502;2023-08-24T04:31:59;23.90;1.00
2010;DHT22;1008;47.404;8.502;2023-08-24T04:34:27;24.00;1.00
2010;DHT22;1008;47.404;8.502;2023-08-24T04:36:54;24.10;1.00
2010;DHT22;1008;47.404;8.502;2023-08-24T04:39:21;24.20;1.00
2010;DHT22;1008;47.404;8.502;2023-08-24T04:41:47;24.20;1.00
2010;DHT22;1008;47.404;8.502;2023-08-24T04:44:14;24.20;1.00
2010;DHT22;1008;47.404;8.502;2023-08-24T04:46:41;24.10;1.00
2010;DHT22;1008;47.404;8.502;2023-08-24T04:49:08;24.00;1.00
2010;DHT22;1008;47.404;8.502;2023-08-24T04:51:36;23.80;1.00
2010;DHT22;1008;47.404;8.502;2023-08-24T04:54:03;23.70;1.00
2010;DHT22;1008;47.404;8.502;2023-08-24T04:56:29;23.60;1.00
2010;DHT22;1008;47.404;8.502;2023-08-24T04:58:57;23.60;1.00
2010;DHT22;1008;47.404;8.502;2023-08-24T05:01:25;23.60;1.00
2010;DHT22;1008;47.404;8.502;2023-08-24T05:03:53;23.60;1.00
2010;DHT22;1008;47.404;8.502;2023-08-24T05:06:20;23.50;1.00
2010;DHT22;1008;47.404;8.502;2023-08-24T05:08:48;23.40;1.00
2010;DHT22;1008;47.404;8.502;2023-08-24T05:11:17;23.50;1.00
2010;DHT22;1008;47.404;8.502;2023-08-24T05:13:44;23.80;1.00
2010;DHT22;1008;47.404;8.502;2023-08-24T05:16:12;24.10;1.00
2010;DHT22;1008;47.404;8.502;2023-08-24T05:18:40;24.30;1.00
2010;DHT22;1008;47.404;8.502;2023-08-24T05:21:07;24.30;1.00
2010;DHT22;1008;47.404;8.502;2023-08-24T05:23:34;24.20;1.00
2010;DHT22;1008;47.404;8.502;2023-08-24T05:26:02;24.40;1.00
2010;DHT22;1008;47.404;8.502;2023-08-24T05:28:30;24.40;1.00
2010;DHT22;1008;47.404;8.502;2023-08-24T05:30:58;24.40;1.00
2010;DHT22;1008;47.404;8.502;2023-08-24T05:33:26;24.30;1.00
2010;DHT22;1008;47.404;8.502;2023-08-24T05:35:56;24.40;1.00
2010;DHT22;1008;47.404;8.502;2023-08-24T05:38:23;24.60;1.00
2010;DHT22;1008;47.404;8.502;2023-08-24T05:40:50;24.60;1.00
2010;DHT22;1008;47.404;8.502;2023-08-24T05:43:18;24.60;1.00
2010;DHT22;1008;47.404;8.502;2023-08-24T05:45:45;24.70;1.00
2010;DHT22;1008;47.404;8.502;2023-08-24T05:48:12;24.30;1.00
2010;DHT22;1008;47.404;8.502;2023-08-24T05:50:42;24.10;1.00
2010;DHT22;1008;47.404;8.502;2023-08-24T05:53:09;24.20;1.00
2010;DHT22;1008;47.404;8.502;2023-08-24T05:55:36;24.30;1.00
2010;DHT22;1008;47.404;8.502;2023-08-24T05:58:03;24.50;1.00
2010;DHT22;1008;47.404;8.502;2023-08-24T06:00:31;24.70;1.00
2010;DHT22;1008;47.404;8.502;2023-08-24T06:02:58;25.00;1.00
2010;DHT22;1008;47.404;8.502;2023-08-24T06:05:25;25.00;1.00
2010;DHT22;1008;47.404;8.502;2023-08-24T06:07:52;25.20;1.00
2010;DHT22;1008;47.404;8.502;2023-08-24T06:10:20;25.30;1.00
2010;DHT22;1008;47.404;8.502;2023-08-24T06:12:46;25.30;1.00
2010;DHT22;1008;47.404;8.502;2023-08-24T06:15:13;25.30;1.00
2010;DHT22;1008;47.404;8.502;2023-08-24T06:17:42;24.80;1.00
2010;DHT22;1008;47.404;8.502;2023-08-24T06:20:10;25.10;1.00
2010;DHT22;1008;47.404;8.502;2023-08-24T06:22:38;25.30;1.00
2010;DHT22;1008;47.404;8.502;2023-08-24T06:25:05;24.90;1.00
2010;DHT22;1008;47.404;8.502;2023-08-24T06:27:34;24.70;1.00
2010;DHT22;1008;47.404;8.502;2023-08-24T06:30:01;25.00;1.00
2010;DHT22;1008;47.404;8.502;2023-08-24T06:32:29;24.90;1.00
2010;DHT22;1008;47.404;8.502;2023-08-24T06:34:57;25.10;1.00
2010;DHT22;1008;47.404;8.502;2023-08-24T06:37:24;25.20;1.00
2010;DHT22;1008;47.404;8.502;2023-08-24T06:39:50;25.50;1.00
2010;DHT22;1008;47.404;8.502;2023-08-24T06:42:17;25.60;1.00
2010;DHT22;1008;47.404;8.502;2023-08-24T06:44:44;25.60;1.00
2010;DHT22;1008;47.404;8.502;2023-08-24T06:47:10;25.10;1.00
2010;DHT22;1008;47.404;8.502;2023-08-24T06:49:37;25.20;1.00
2010;DHT22;1008;47.404;8.502;2023-08-24T06:52:05;25.40;1.00
2010;DHT22;1008;47.404;8.502;2023-08-24T06:54:33;25.40;1.00
2010;DHT22;1008;47.404;8.502;2023-08-24T06:57:00;25.30;1.00
2010;DHT22;1008;47.404;8.502;2023-08-24T06:59:27;25.30;1.00
2010;DHT22;1008;47.404;8.502;2023-08-24T07:01:54;25.70;1.00
2010;DHT22;1008;47.404;8.502;2023-08-24T07:04:20;26.00;1.00
2010;DHT22;1008;47.404;8.502;2023-08-24T07:06:47;26.30;1.00
2010;DHT22;1008;47.404;8.502;2023-08-24T07:09:15;26.50;99.90
2010;DHT22;1008;47.404;8.502;2023-08-24T07:11:43;26.90;99.90
2010;DHT22;1008;47.404;8.502;2023-08-24T07:14:10;27.00;99.90
2010;DHT22;1008;47.404;8.502;2023-08-24T07:16:37;27.10;99.90
2010;DHT22;1008;47.404;8.502;2023-08-24T07:19:03;27.40;99.90
2010;DHT22;1008;47.404;8.502;2023-08-24T07:21:31;27.30;99.90
2010;DHT22;1008;47.404;8.502;2023-08-24T07:23:57;27.30;99.90
2010;DHT22;1008;47.404;8.502;2023-08-24T07:26:25;27.70;99.90
2010;DHT22;1008;47.404;8.502;2023-08-24T07:28:52;27.60;99.90
2010;DHT22;1008;47.404;8.502;2023-08-24T07:31:19;27.10;99.90
2010;DHT22;1008;47.404;8.502;2023-08-24T07:33:45;26.90;99.90
2010;DHT22;1008;47.404;8.502;2023-08-24T07:36:12;27.00;99.90
2010;DHT22;1008;47.404;8.502;2023-08-24T07:38:39;27.20;99.90
2010;DHT22;1008;47.404;8.502;2023-08-24T07:41:06;27.10;99.90
2010;DHT22;1008;47.404;8.502;2023-08-24T07:43:34;26.90;99.90
2010;DHT22;1008;47.404;8.502;2023-08-24T07:46:00;27.00;99.90
2010;DHT22;1008;47.404;8.502;2023-08-24T07:48:27;27.30;99.90
2010;DHT22;1008;47.404;8.502;2023-08-24T07:50:54;27.60;99.90
2010;DHT22;1008;47.404;8.502;2023-08-24T07:53:21;27.90;99.90
2010;DHT22;1008;47.404;8.502;2023-08-24T07:55:47;27.80;99.90
2010;DHT22;1008;47.404;8.502;2023-08-24T07:58:14;27.80;99.90
2010;DHT22;1008;47.404;8.502;2023-08-24T08:00:42;27.70;99.90
2010;DHT22;1008;47.404;8.502;2023-08-24T08:03:09;27.50;99.90
2010;DHT22;1008;47.404;8.502;2023-08-24T08:05:36;27.30;99.90
2010;DHT22;1008;47.404;8.502;2023-08-24T08:08:03;27.40;99.90
2010;DHT22;1008;47.404;8.502;2023-08-24T08:10:31;27.60;99.90
2010;DHT22;1008;47.404;8.502;2023-08-24T08:12:57;27.40;99.90
2010;DHT22;1008;47.404;8.502;2023-08-24T08:15:24;27.50;99.90
2010;DHT22;1008;47.404;8.502;2023-08-24T08:17:52;27.30;99.90
2010;DHT22;1008;47.404;8.502;2023-08-24T08:20:19;27.50;99.90
2010;DHT22;1008;47.404;8.502;2023-08-24T08:22:46;27.60;99.90
2010;DHT22;1008;47.404;8.502;2023-08-24T08:25:12;27.60;99.90
2010;DHT22;1008;47.404;8.502;2023-08-24T08:27:39;28.10;99.90
2010;DHT22;1008;47.404;8.502;2023-08-24T08:30:07;28.50;99.90
2010;DHT22;1008;47.404;8.502;2023-08-24T08:32:33;28.50;99.90
2010;DHT22;1008;47.404;8.502;2023-08-24T08:35:02;28.60;99.90
2010;DHT22;1008;47.404;8.502;2023-08-24T08:37:30;29.10;99.90
2010;DHT22;1008;47.404;8.502;2023-08-24T08:39:57;29.40;99.90
2010;DHT22;1008;47.404;8.502;2023-08-24T08:42:24;29.20;99.90
2010;DHT22;1008;47.404;8.502;2023-08-24T08:44:51;29.50;99.90
2010;DHT22;1008;47.404;8.502;2023-08-24T08:47:20;29.50;99.90
2010;DHT22;1008;47.404;8.502;2023-08-24T08:49:48;29.80;99.90
2010;DHT22;1008;47.404;8.502;2023-08-24T08:52:16;30.20;99.90
2010;DHT22;1008;47.404;8.502;2023-08-24T08:54:43;30.30;99.90
2010;DHT22;1008;47.404;8.502;2023-08-24T08:57:10;29.80;99.90
2010;DHT22;1008;47.404;8.502;2023-08-24T08:59:37;29.80;99.90
2010;DHT22;1008;47.404;8.502;2023-08-24T09:02:05;29.90;99.90
2010;DHT22;1008;47.404;8.502;2023-08-24T09:04:33;30.20;99.90
2010;DHT22;1008;47.404;8.502;2023-08-24T09:07:00;30.30;99.90
2010;DHT22;1008;47.404;8.502;2023-08-24T09:09:31;30.20;99.90
2010;DHT22;1008;47.404;8.502;2023-08-24T09:11:59;30.20;99.90
2010;DHT22;1008;47.404;8.502;2023-08-24T09:14:26;30.40;99.90
2010;DHT22;1008;47.404;8.502;2023-08-24T09:16:52;30.30;99.90
2010;DHT22;1008;47.404;8.502;2023-08-24T09:19:27;30.70;99.90
2010;DHT22;1008;47.404;8.502;2023-08-24T09:21:56;31.20;99.90
2010;DHT22;1008;47.404;8.502;2023-08-24T09:24:30;31.20;99.90
2010;DHT22;1008;47.404;8.502;2023-08-24T09:26:57;31.40;99.90
2010;DHT22;1008;47.404;8.502;2023-08-24T09:29:24;31.40;99.90
2010;DHT22;1008;47.404;8.502;2023-08-24T09:31:51;31.20;99.90
2010;DHT22;1008;47.404;8.502;2023-08-24T09:34:19;31.30;99.90
2010;DHT22;1008;47.404;8.502;2023-08-24T09:36:47;31.10;99.90
2010;DHT22;1008;47.404;8.502;2023-08-24T09:39:16;31.30;99.90
2010;DHT22;1008;47.404;8.502;2023-08-24T09:41:48;31.40;99.90
2010;DHT22;1008;47.404;8.502;2023-08-24T09:44:17;31.40;99.90
2010;DHT22;1008;47.404;8.502;2023-08-24T09:46:44;31.20;99.90
2010;DHT22;1008;47.404;8.502;2023-08-24T09:49:11;31.10;99.90
2010;DHT22;1008;47.404;8.502;2023-08-24T09:51:39;31.20;99.90
2010;DHT22;1008;47.404;8.502;2023-08-24T09:54:08;31.40;99.90
2010;DHT22;1008;47.404;8.502;2023-08-24T09:56:36;31.60;99.90
2010;DHT22;1008;47.404;8.502;2023-08-24T09:59:11;32.10;99.90
2010;DHT22;1008;47.404;8.502;2023-08-24T10:01:41;32.00;99.90
2010;DHT22;1008;47.404;8.502;2023-08-24T10:04:09;31.70;99.90
2010;DHT22;1008;47.404;8.502;2023-08-24T10:06:38;31.80;99.90
2010;DHT22;1008;47.404;8.502;2023-08-24T10:09:08;32.00;99.90
2010;DHT22;1008;47.404;8.502;2023-08-24T10:11:43;32.30;99.90
2010;DHT22;1008;47.404;8.502;2023-08-24T10:14:19;32.50;99.90
2010;DHT22;1008;47.404;8.502;2023-08-24T10:16:47;32.50;99.90
2010;DHT22;1008;47.404;8.502;2023-08-24T10:19:15;32.40;99.90
2010;DHT22;1008;47.404;8.502;2023-08-24T10:21:43;32.50;99.90
2010;DHT22;1008;47.404;8.502;2023-08-24T10:24:12;32.50;99.90
2010;DHT22;1008;47.404;8.502;2023-08-24T10:26:39;32.90;99.90
2010;DHT22;1008;47.404;8.502;2023-08-24T10:29:06;32.80;99.90
2010;DHT22;1008;47.404;8.502;2023-08-24T10:31:35;33.10;99.90
2010;DHT22;1008;47.404;8.502;2023-08-24T10:34:04;33.10;99.90
2010;DHT22;1008;47.404;8.502;2023-08-24T10:36:31;32.80;99.90
2010;DHT22;1008;47.404;8.502;2023-08-24T10:39:02;33.00;99.90
2010;DHT22;1008;47.404;8.502;2023-08-24T10:41:46;33.10;99.90
2010;DHT22;1008;47.404;8.502;2023-08-24T10:44:20;33.30;99.90
2010;DHT22;1008;47.404;8.502;2023-08-24T10:47:10;33.60;99.90
2010;DHT22;1008;47.404;8.502;2023-08-24T10:49:38;33.70;99.90
2010;DHT22;1008;47.404;8.502;2023-08-24T10:52:17;34.00;99.90
2010;DHT22;1008;47.404;8.502;2023-08-24T10:54:45;34.20;99.90
2010;DHT22;1008;47.404;8.502;2023-08-24T10:57:18;34.20;99.90
2010;DHT22;1008;47.404;8.502;2023-08-24T10:59:45;33.70;99.90
2010;DHT22;1008;47.404;8.502;2023-08-24T11:02:19;33.90;99.90
2010;DHT22;1008;47.404;8.502;2023-08-24T11:05:03;34.10;99.90
2010;DHT22;1008;47.404;8.502;2023-08-24T11:07:30;34.60;99.90
2010;DHT22;1008;47.404;8.502;2023-08-24T11:09:57;34.80;99.90
2010;DHT22;1008;47.404;8.502;2023-08-24T11:12:24;35.00;99.90
2010;DHT22;1008;47.404;8.502;2023-08-24T11:14:51;34.60;99.90
2010;DHT22;1008;47.404;8.502;2023-08-24T11:17:21;34.10;99.90
2010;DHT22;1008;47.404;8.502;2023-08-24T11:19:49;34.00;99.90
2010;DHT22;1008;47.404;8.502;2023-08-24T11:22:17;34.60;99.90
2010;DHT22;1008;47.404;8.502;2023-08-24T11:24:43;35.10;99.90
2010;DHT22;1008;47.404;8.502;2023-08-24T11:27:10;35.50;99.90
2010;DHT22;1008;47.404;8.502;2023-08-24T11:29:37;35.40;99.90
2010;DHT22;1008;47.404;8.502;2023-08-24T11:32:04;35.10;99.90
2010;DHT22;1008;47.404;8.502;2023-08-24T11:34:34;34.70;99.90
2010;DHT22;1008;47.404;8.502;2023-08-24T11:37:01;34.90;99.90
2010;DHT22;1008;47.404;8.502;2023-08-24T11:39:28;35.30;99.90
2010;DHT22;1008;47.404;8.502;2023-08-24T11:41:58;35.70;99.90
2010;DHT22;1008;47.404;8.502;2023-08-24T11:44:25;36.00;99.90
2010;DHT22;1008;47.404;8.502;2023-08-24T11:46:52;36.10;99.90
2010;DHT22;1008;47.404;8.502;2023-08-24T11:49:19;35.60;99.90
2010;DHT22;1008;47.404;8.502;2023-08-24T11:51:47;35.70;99.90
2010;DHT22;1008;47.404;8.502;2023-08-24T11:54:16;35.90;99.90
2010;DHT22;1008;47.404;8.502;2023-08-24T11:56:43;35.60;99.90
2010;DHT22;1008;47.404;8.502;2023-08-24T11:59:12;35.50;99.90
2010;DHT22;1008;47.404;8.502;2023-08-24T12:01:41;35.70;99.90
2010;DHT22;1008;47.404;8.502;2023-08-24T12:04:08;35.90;99.90
2010;DHT22;1008;47.404;8.502;2023-08-24T12:06:35;35.80;99.90
2010;DHT22;1008;47.404;8.502;2023-08-24T12:09:05;36.10;99.90
2010;DHT22;1008;47.404;8.502;2023-08-24T12:11:35;36.10;99.90
2010;DHT22;1008;47.404;8.502;2023-08-24T12:14:02;35.70;99.90
2010;DHT22;1008;47.404;8.502;2023-08-24T12:16:32;35.50;99.90
2010;DHT22;1008;47.404;8.502;2023-08-24T12:19:00;35.50;99.90
2010;DHT22;1008;47.404;8.502;2023-08-24T12:21:28;35.90;99.90
2010;DHT22;1008;47.404;8.502;2023-08-24T12:23:56;35.50;99.90
2010;DHT22;1008;47.404;8.502;2023-08-24T12:26:26;35.60;99.90
2010;DHT22;1008;47.404;8.502;2023-08-24T12:28:54;35.80;99.90
2010;DHT22;1008;47.404;8.502;2023-08-24T12:31:26;35.90;99.90
2010;DHT22;1008;47.404;8.502;2023-08-24T12:34:00;35.80;99.90
2010;DHT22;1008;47.404;8.502;2023-08-24T12:36:28;36.50;99.90
2010;DHT22;1008;47.404;8.502;2023-08-24T12:38:55;36.70;99.90
2010;DHT22;1008;47.404;8.502;2023-08-24T12:41:22;36.60;99.90
2010;DHT22;1008;47.404;8.502;2023-08-24T12:43:50;37.00;99.90
2010;DHT22;1008;47.404;8.502;2023-08-24T12:46:17;36.80;99.90
2010;DHT22;1008;47.404;8.502;2023-08-24T12:48:44;36.90;99.90
2010;DHT22;1008;47.404;8.502;2023-08-24T12:51:11;37.20;99.90
2010;DHT22;1008;47.404;8.502;2023-08-24T12:53:38;37.40;99.90
2010;DHT22;1008;47.404;8.502;2023-08-24T12:56:04;37.10;99.90
2010;DHT22;1008;47.404;8.502;2023-08-24T12:58:31;37.30;99.90
2010;DHT22;1008;47.404;8.502;2023-08-24T13:01:00;37.50;99.90
2010;DHT22;1008;47.404;8.502;2023-08-24T13:03:26;37.70;99.90
2010;DHT22;1008;47.404;8.502;2023-08-24T13:05:53;37.70;99.90
2010;DHT22;1008;47.404;8.502;2023-08-24T13:08:20;37.90;99.90
2010;DHT22;1008;47.404;8.502;2023-08-24T13:10:46;38.00;99.90
2010;DHT22;1008;47.404;8.502;2023-08-24T13:13:13;38.20;99.90
2010;DHT22;1008;47.404;8.502;2023-08-24T13:15:40;37.90;99.90
2010;DHT22;1008;47.404;8.502;2023-08-24T13:18:08;37.70;99.90
2010;DHT22;1008;47.404;8.502;2023-08-24T13:20:35;37.90;99.90
2010;DHT22;1008;47.404;8.502;2023-08-24T13:23:01;38.00;99.90
2010;DHT22;1008;47.404;8.502;2023-08-24T13:25:28;38.10;99.90
2010;DHT22;1008;47.404;8.502;2023-08-24T13:27:55;37.60;99.90
2010;DHT22;1008;47.404;8.502;2023-08-24T13:30:22;37.50;99.90
2010;DHT22;1008;47.404;8.502;2023-08-24T13:32:49;37.30;99.90
2010;DHT22;1008;47.404;8.502;2023-08-24T13:35:17;37.00;99.90
2010;DHT22;1008;47.404;8.502;2023-08-24T13:37:44;36.70;99.90
2010;DHT22;1008;47.404;8.502;2023-08-24T13:40:11;37.00;99.90
2010;DHT22;1008;47.404;8.502;2023-08-24T13:42:37;37.20;99.90
2010;DHT22;1008;47.404;8.502;2023-08-24T13:45:05;37.40;99.90
2010;DHT22;1008;47.404;8.502;2023-08-24T13:47:32;37.60;99.90
2010;DHT22;1008;47.404;8.502;2023-08-24T13:49:58;37.60;99.90
2010;DHT22;1008;47.404;8.502;2023-08-24T13:52:27;37.50;99.90
2010;DHT22;1008;47.404;8.502;2023-08-24T13:54:54;37.40;99.90
2010;DHT22;1008;47.404;8.502;2023-08-24T13:57:20;37.20;99.90
2010;DHT22;1008;47.404;8.502;2023-08-24T13:59:47;37.20;99.90
2010;DHT22;1008;47.404;8.502;2023-08-24T14:02:14;37.30;99.90
2010;DHT22;1008;47.404;8.502;2023-08-24T14:04:40;37.60;99.90
2010;DHT22;1008;47.404;8.502;2023-08-24T14:07:07;37.80;99.90
2010;DHT22;1008;47.404;8.502;2023-08-24T14:09:36;37.40;99.90
2010;DHT22;1008;47.404;8.502;2023-08-24T14:12:03;37.60;99.90
2010;DHT22;1008;47.404;8.502;2023-08-24T14:14:30;37.40;99.90
2010;DHT22;1008;47.404;8.502;2023-08-24T14:16:57;37.00;99.90
2010;DHT22;1008;47.404;8.502;2023-08-24T14:19:24;37.00;99.90
2010;DHT22;1008;47.404;8.502;2023-08-24T14:21:51;37.00;99.90
2010;DHT22;1008;47.404;8.502;2023-08-24T14:24:17;37.10;99.90
2010;DHT22;1008;47.404;8.502;2023-08-24T14:26:45;37.40;99.90
2010;DHT22;1008;47.404;8.502;2023-08-24T14:29:12;37.40;99.90
2010;DHT22;1008;47.404;8.502;2023-08-24T14:31:39;37.70;99.90
2010;DHT22;1008;47.404;8.502;2023-08-24T14:34:06;37.60;99.90
2010;DHT22;1008;47.404;8.502;2023-08-24T14:36:33;37.40;99.90
2010;DHT22;1008;47.404;8.502;2023-08-24T14:39:00;37.10;99.90
2010;DHT22;1008;47.404;8.502;2023-08-24T14:41:27;36.80;99.90
2010;DHT22;1008;47.404;8.502;2023-08-24T14:43:55;36.70;99.90
2010;DHT22;1008;47.404;8.502;2023-08-24T14:46:21;36.60;99.90
2010;DHT22;1008;47.404;8.502;2023-08-24T14:48:48;36.50;99.90
2010;DHT22;1008;47.404;8.502;2023-08-24T14:51:15;36.50;99.90
2010;DHT22;1008;47.404;8.502;2023-08-24T14:53:41;36.40;99.90
2010;DHT22;1008;47.404;8.502;2023-08-24T14:56:08;36.60;99.90
2010;DHT22;1008;47.404;8.502;2023-08-24T14:58:36;36.50;99.90
2010;DHT22;1008;47.404;8.502;2023-08-24T15:01:04;36.50;99.90
2010;DHT22;1008;47.404;8.502;2023-08-24T15:03:31;36.50;99.90
2010;DHT22;1008;47.404;8.502;2023-08-24T15:05:59;36.50;99.90
2010;DHT22;1008;47.404;8.502;2023-08-24T15:08:26;36.40;99.90
2010;DHT22;1008;47.404;8.502;2023-08-24T15:10:54;36.40;99.90
2010;DHT22;1008;47.404;8.502;2023-08-24T15:13:25;36.60;99.90
2010;DHT22;1008;47.404;8.502;2023-08-24T15:15:53;36.60;99.90
2010;DHT22;1008;47.404;8.502;2023-08-24T15:18:22;36.50;99.90
2010;DHT22;1008;47.404;8.502;2023-08-24T15:20:49;36.20;99.90
2010;DHT22;1008;47.404;8.502;2023-08-24T15:23:23;36.20;99.90
2010;DHT22;1008;47.404;8.502;2023-08-24T15:25:50;36.20;99.90
2010;DHT22;1008;47.404;8.502;2023-08-24T15:28:17;36.30;99.90
2010;DHT22;1008;47.404;8.502;2023-08-24T15:30:43;36.40;99.90
2010;DHT22;1008;47.404;8.502;2023-08-24T15:33:10;36.40;99.90
2010;DHT22;1008;47.404;8.502;2023-08-24T15:35:39;36.20;99.90
2010;DHT22;1008;47.404;8.502;2023-08-24T15:38:06;36.10;99.90
2010;DHT22;1008;47.404;8.502;2023-08-24T15:40:33;36.10;99.90
2010;DHT22;1008;47.404;8.502;2023-08-24T15:43:00;35.90;99.90
2010;DHT22;1008;47.404;8.502;2023-08-24T15:45:27;36.10;99.90
2010;DHT22;1008;47.404;8.502;2023-08-24T15:47:55;36.20;99.90
2010;DHT22;1008;47.404;8.502;2023-08-24T15:50:21;36.20;99.90
2010;DHT22;1008;47.404;8.502;2023-08-24T15:52:50;36.30;99.90
2010;DHT22;1008;47.404;8.502;2023-08-24T15:55:17;36.20;99.90
2010;DHT22;1008;47.404;8.502;2023-08-24T15:57:44;36.20;99.90
2010;DHT22;1008;47.404;8.502;2023-08-24T16:00:12;36.30;99.90
2010;DHT22;1008;47.404;8.502;2023-08-24T16:02:39;36.10;99.90
2010;DHT22;1008;47.404;8.502;2023-08-24T16:05:07;35.90;99.90
2010;DHT22;1008;47.404;8.502;2023-08-24T16:07:34;35.80;99.90